sensor_id;sensor_type;location;lat;lon;timestamp;temperature;humidity
50907;DHT22;36882;27.680;85.304;2022-11-22T00:01:19;11.80;92.70
50907;DHT22;36882;27.680;85.304;2022-11-22T00:03:49;11.70;92.30
50907;DHT22;36882;27.680;85.304;2022-11-22T00:06:35;11.70;92.40
50907;DHT22;36882;27.680;85.304;2022-11-22T00:09:06;11.70;92.50
50907;DHT22;36882;27.680;85.304;2022-11-22T00:11:36;11.80;92.40
50907;DHT22;36882;27.680;85.304;2022-11-22T00:14:06;11.70;92.30
50907;DHT22;36882;27.680;85.304;2022-11-22T00:16:56;11.70;92.30
50907;DHT22;36882;27.680;85.304;2022-11-22T00:19:42;11.70;92.00
50907;DHT22;36882;27.680;85.304;2022-11-22T00:22:25;11.70;92.20
50907;DHT22;36882;27.680;85.304;2022-11-22T00:27:35;11.70;92.30
50907;DHT22;36882;27.680;85.304;2022-11-22T00:30:06;11.70;92.50
50907;DHT22;36882;27.680;85.304;2022-11-22T00:32:36;11.70;92.40
50907;DHT22;36882;27.680;85.304;2022-11-22T00:41:06;11.60;92.10
50907;DHT22;36882;27.680;85.304;2022-11-22T00:46:27;11.60;92.10
50907;DHT22;36882;27.680;85.304;2022-11-22T00:49:13;11.60;92.10
50907;DHT22;36882;27.680;85.304;2022-11-22T00:51:58;11.70;92.00
50907;DHT22;36882;27.680;85.304;2022-11-22T00:57:47;11.70;92.00
50907;DHT22;36882;27.680;85.304;2022-11-22T01:03:13;11.60;92.10
50907;DHT22;36882;27.680;85.304;2022-11-22T01:05:57;11.70;92.20
50907;DHT22;36882;27.680;85.304;2022-11-22T01:11:08;11.60;92.30
50907;DHT22;36882;27.680;85.304;2022-11-22T01:19:53;11.70;92.60
50907;DHT22;36882;27.680;85.304;2022-11-22T01:22:24;11.70;93.00
50907;DHT22;36882;27.680;85.304;2022-11-22T01:25:09;11.80;93.00
50907;DHT22;36882;27.680;85.304;2022-11-22T01:30:59;11.90;93.00
50907;DHT22;36882;27.680;85.304;2022-11-22T01:33:30;12.00;92.60
50907;DHT22;36882;27.680;85.304;2022-11-22T01:36:02;12.20;92.30
50907;DHT22;36882;27.680;85.304;2022-11-22T01:38:32;12.20;92.20
50907;DHT22;36882;27.680;85.304;2022-11-22T01:41:02;12.20;92.00
50907;DHT22;36882;27.680;85.304;2022-11-22T01:43:33;12.20;92.10
50907;DHT22;36882;27.680;85.304;2022-11-22T01:46:08;12.30;92.00
50907;DHT22;36882;27.680;85.304;2022-11-22T01:51:45;12.50;91.40
50907;DHT22;36882;27.680;85.304;2022-11-22T01:54:18;12.60;91.30
50907;DHT22;36882;27.680;85.304;2022-11-22T01:56:54;12.70;90.90
50907;DHT22;36882;27.680;85.304;2022-11-22T01:59:29;12.90;90.60
50907;DHT22;36882;27.680;85.304;2022-11-22T02:02:01;13.00;90.60
50907;DHT22;36882;27.680;85.304;2022-11-22T02:04:32;13.10;90.30
50907;DHT22;36882;27.680;85.304;2022-11-22T02:07:10;13.30;89.90
50907;DHT22;36882;27.680;85.304;2022-11-22T02:09:43;13.50;88.80
50907;DHT22;36882;27.680;85.304;2022-11-22T02:12:15;13.70;88.10
50907;DHT22;36882;27.680;85.304;2022-11-22T02:14:47;13.90;87.10
50907;DHT22;36882;27.680;85.304;2022-11-22T02:17:17;14.10;86.00
50907;DHT22;36882;27.680;85.304;2022-11-22T02:19:49;14.20;85.70
50907;DHT22;36882;27.680;85.304;2022-11-22T02:22:47;14.40;85.30
50907;DHT22;36882;27.680;85.304;2022-11-22T02:25:28;14.50;84.00
50907;DHT22;36882;27.680;85.304;2022-11-22T02:27:59;14.60;83.80
50907;DHT22;36882;27.680;85.304;2022-11-22T02:30:30;14.60;83.00
50907;DHT22;36882;27.680;85.304;2022-11-22T02:33:02;14.50;83.00
50907;DHT22;36882;27.680;85.304;2022-11-22T02:35:33;14.50;81.40
50907;DHT22;36882;27.680;85.304;2022-11-22T02:38:10;14.50;82.70
50907;DHT22;36882;27.680;85.304;2022-11-22T02:40:54;14.40;81.30
50907;DHT22;36882;27.680;85.304;2022-11-22T02:43:30;14.40;81.40
50907;DHT22;36882;27.680;85.304;2022-11-22T02:46:08;14.40;83.10
50907;DHT22;36882;27.680;85.304;2022-11-22T02:48:41;14.50;82.80
50907;DHT22;36882;27.680;85.304;2022-11-22T02:51:13;14.60;83.70
50907;DHT22;36882;27.680;85.304;2022-11-22T02:53:46;14.70;83.10
50907;DHT22;36882;27.680;85.304;2022-11-22T02:56:17;14.70;82.80
50907;DHT22;36882;27.680;85.304;2022-11-22T02:58:48;14.80;82.30
50907;DHT22;36882;27.680;85.304;2022-11-22T03:01:18;14.80;83.00
50907;DHT22;36882;27.680;85.304;2022-11-22T03:03:50;14.90;82.00
50907;DHT22;36882;27.680;85.304;2022-11-22T03:06:20;15.00;82.40
50907;DHT22;36882;27.680;85.304;2022-11-22T03:08:50;15.10;83.30
50907;DHT22;36882;27.680;85.304;2022-11-22T03:11:24;15.20;83.50
50907;DHT22;36882;27.680;85.304;2022-11-22T03:13:54;15.30;82.20
50907;DHT22;36882;27.680;85.304;2022-11-22T03:16:25;15.40;83.40
50907;DHT22;36882;27.680;85.304;2022-11-22T03:18:55;15.50;82.00
50907;DHT22;36882;27.680;85.304;2022-11-22T03:21:26;15.60;81.70
50907;DHT22;36882;27.680;85.304;2022-11-22T03:23:56;15.60;82.40
50907;DHT22;36882;27.680;85.304;2022-11-22T03:26:27;15.70;83.50
50907;DHT22;36882;27.680;85.304;2022-11-22T03:28:57;15.80;83.90
50907;DHT22;36882;27.680;85.304;2022-11-22T03:31:31;16.00;83.10
50907;DHT22;36882;27.680;85.304;2022-11-22T03:34:02;16.10;81.00
50907;DHT22;36882;27.680;85.304;2022-11-22T03:36:32;16.20;81.10
50907;DHT22;36882;27.680;85.304;2022-11-22T03:39:07;16.20;81.40
50907;DHT22;36882;27.680;85.304;2022-11-22T03:41:37;16.30;81.70
50907;DHT22;36882;27.680;85.304;2022-11-22T03:44:07;16.40;82.00
50907;DHT22;36882;27.680;85.304;2022-11-22T03:46:38;16.50;81.90
50907;DHT22;36882;27.680;85.304;2022-11-22T03:49:09;16.50;81.90
50907;DHT22;36882;27.680;85.304;2022-11-22T03:51:41;16.60;82.80
50907;DHT22;36882;27.680;85.304;2022-11-22T03:54:11;16.70;82.00
50907;DHT22;36882;27.680;85.304;2022-11-22T03:56:41;16.80;81.50
50907;DHT22;36882;27.680;85.304;2022-11-22T03:59:12;16.80;81.50
50907;DHT22;36882;27.680;85.304;2022-11-22T04:01:42;17.00;80.50
50907;DHT22;36882;27.680;85.304;2022-11-22T04:04:13;17.00;80.00
50907;DHT22;36882;27.680;85.304;2022-11-22T04:06:43;16.80;80.40
50907;DHT22;36882;27.680;85.304;2022-11-22T04:09:13;16.90;81.70
50907;DHT22;36882;27.680;85.304;2022-11-22T04:11:44;17.00;81.20
50907;DHT22;36882;27.680;85.304;2022-11-22T04:14:15;17.10;81.00
50907;DHT22;36882;27.680;85.304;2022-11-22T04:16:59;17.30;80.60
50907;DHT22;36882;27.680;85.304;2022-11-22T04:19:30;17.30;80.70
50907;DHT22;36882;27.680;85.304;2022-11-22T04:22:00;17.40;80.90
50907;DHT22;36882;27.680;85.304;2022-11-22T04:24:34;17.50;80.70
50907;DHT22;36882;27.680;85.304;2022-11-22T04:27:20;17.50;80.60
50907;DHT22;36882;27.680;85.304;2022-11-22T04:29:50;17.60;80.60
50907;DHT22;36882;27.680;85.304;2022-11-22T04:32:20;17.70;80.20
50907;DHT22;36882;27.680;85.304;2022-11-22T04:35:00;17.90;79.30
50907;DHT22;36882;27.680;85.304;2022-11-22T04:37:30;17.90;80.10
50907;DHT22;36882;27.680;85.304;2022-11-22T04:40:00;18.00;79.90
50907;DHT22;36882;27.680;85.304;2022-11-22T04:42:33;18.00;78.90
50907;DHT22;36882;27.680;85.304;2022-11-22T04:45:21;18.10;78.10
50907;DHT22;36882;27.680;85.304;2022-11-22T04:47:52;18.20;78.20
50907;DHT22;36882;27.680;85.304;2022-11-22T04:50:31;18.10;77.90
50907;DHT22;36882;27.680;85.304;2022-11-22T04:53:11;18.10;79.70
50907;DHT22;36882;27.680;85.304;2022-11-22T04:55:43;18.20;79.80
50907;DHT22;36882;27.680;85.304;2022-11-22T04:58:14;18.30;79.60
50907;DHT22;36882;27.680;85.304;2022-11-22T05:00:45;18.40;79.50
50907;DHT22;36882;27.680;85.304;2022-11-22T05:03:16;18.60;78.40
50907;DHT22;36882;27.680;85.304;2022-11-22T05:05:47;18.70;78.70
50907;DHT22;36882;27.680;85.304;2022-11-22T05:08:17;18.80;77.80
50907;DHT22;36882;27.680;85.304;2022-11-22T05:10:50;18.90;77.30
50907;DHT22;36882;27.680;85.304;2022-11-22T05:13:31;18.90;78.50
50907;DHT22;36882;27.680;85.304;2022-11-22T05:16:04;18.90;78.40
50907;DHT22;36882;27.680;85.304;2022-11-22T05:18:35;19.00;77.90
50907;DHT22;36882;27.680;85.304;2022-11-22T05:21:06;19.10;77.60
50907;DHT22;36882;27.680;85.304;2022-11-22T05:23:37;19.10;76.70
50907;DHT22;36882;27.680;85.304;2022-11-22T05:26:27;19.10;77.20
50907;DHT22;36882;27.680;85.304;2022-11-22T05:29:01;19.10;76.40
50907;DHT22;36882;27.680;85.304;2022-11-22T05:31:33;19.20;76.50
50907;DHT22;36882;27.680;85.304;2022-11-22T05:34:04;19.30;76.00
50907;DHT22;36882;27.680;85.304;2022-11-22T05:36:35;19.30;74.90
50907;DHT22;36882;27.680;85.304;2022-11-22T05:39:05;19.30;75.30
50907;DHT22;36882;27.680;85.304;2022-11-22T05:41:36;19.50;73.60
50907;DHT22;36882;27.680;85.304;2022-11-22T05:44:06;19.50;73.90
50907;DHT22;36882;27.680;85.304;2022-11-22T05:46:37;19.50;75.10
50907;DHT22;36882;27.680;85.304;2022-11-22T05:49:06;19.60;74.50
50907;DHT22;36882;27.680;85.304;2022-11-22T05:51:37;19.80;73.50
50907;DHT22;36882;27.680;85.304;2022-11-22T05:54:08;19.80;74.00
50907;DHT22;36882;27.680;85.304;2022-11-22T05:56:40;19.90;73.80
50907;DHT22;36882;27.680;85.304;2022-11-22T05:59:10;20.10;72.90
50907;DHT22;36882;27.680;85.304;2022-11-22T06:01:40;20.20;71.60
50907;DHT22;36882;27.680;85.304;2022-11-22T06:04:11;20.10;72.70
50907;DHT22;36882;27.680;85.304;2022-11-22T06:06:45;20.10;72.70
50907;DHT22;36882;27.680;85.304;2022-11-22T06:09:15;20.30;70.90
50907;DHT22;36882;27.680;85.304;2022-11-22T06:11:45;20.30;69.90
50907;DHT22;36882;27.680;85.304;2022-11-22T06:14:16;20.40;69.00
50907;DHT22;36882;27.680;85.304;2022-11-22T06:16:46;20.40;70.40
50907;DHT22;36882;27.680;85.304;2022-11-22T06:19:17;20.50;72.10
50907;DHT22;36882;27.680;85.304;2022-11-22T06:21:47;20.50;72.50
50907;DHT22;36882;27.680;85.304;2022-11-22T06:24:18;20.60;70.40
50907;DHT22;36882;27.680;85.304;2022-11-22T06:26:49;20.80;69.10
50907;DHT22;36882;27.680;85.304;2022-11-22T06:29:22;20.90;68.90
50907;DHT22;36882;27.680;85.304;2022-11-22T06:31:53;21.00;68.20
50907;DHT22;36882;27.680;85.304;2022-11-22T06:34:29;20.90;69.00
50907;DHT22;36882;27.680;85.304;2022-11-22T06:37:00;20.90;69.30
50907;DHT22;36882;27.680;85.304;2022-11-22T06:39:31;20.90;69.90
50907;DHT22;36882;27.680;85.304;2022-11-22T06:42:02;20.90;69.00
50907;DHT22;36882;27.680;85.304;2022-11-22T06:44:32;20.90;69.40
50907;DHT22;36882;27.680;85.304;2022-11-22T06:47:02;20.90;68.10
50907;DHT22;36882;27.680;85.304;2022-11-22T06:49:33;21.00;67.60
50907;DHT22;36882;27.680;85.304;2022-11-22T06:52:03;21.20;67.90
50907;DHT22;36882;27.680;85.304;2022-11-22T06:54:34;21.20;67.10
50907;DHT22;36882;27.680;85.304;2022-11-22T06:57:04;21.30;66.40
50907;DHT22;36882;27.680;85.304;2022-11-22T06:59:35;21.30;66.10
50907;DHT22;36882;27.680;85.304;2022-11-22T07:02:07;21.30;67.10
50907;DHT22;36882;27.680;85.304;2022-11-22T07:04:40;21.30;67.20
50907;DHT22;36882;27.680;85.304;2022-11-22T07:07:30;21.50;66.60
50907;DHT22;36882;27.680;85.304;2022-11-22T07:10:02;21.40;67.10
50907;DHT22;36882;27.680;85.304;2022-11-22T07:12:32;21.50;66.50
50907;DHT22;36882;27.680;85.304;2022-11-22T07:15:03;21.50;66.20
50907;DHT22;36882;27.680;85.304;2022-11-22T07:17:33;21.60;65.50
50907;DHT22;36882;27.680;85.304;2022-11-22T07:20:05;21.60;64.20
50907;DHT22;36882;27.680;85.304;2022-11-22T07:22:35;21.60;64.20
50907;DHT22;36882;27.680;85.304;2022-11-22T07:25:07;21.50;64.00
50907;DHT22;36882;27.680;85.304;2022-11-22T07:27:51;21.50;62.60
50907;DHT22;36882;27.680;85.304;2022-11-22T07:31:10;21.40;63.30
50907;DHT22;36882;27.680;85.304;2022-11-22T07:34:14;21.50;63.60
50907;DHT22;36882;27.680;85.304;2022-11-22T07:37:49;21.40;62.80
50907;DHT22;36882;27.680;85.304;2022-11-22T07:40:54;21.40;62.80
50907;DHT22;36882;27.680;85.304;2022-11-22T07:43:25;21.40;61.40
50907;DHT22;36882;27.680;85.304;2022-11-22T07:46:20;21.40;61.90
50907;DHT22;36882;27.680;85.304;2022-11-22T07:48:51;21.30;61.80
50907;DHT22;36882;27.680;85.304;2022-11-22T07:51:22;21.50;61.00
50907;DHT22;36882;27.680;85.304;2022-11-22T07:53:54;21.60;62.50
50907;DHT22;36882;27.680;85.304;2022-11-22T07:56:25;21.60;62.60
50907;DHT22;36882;27.680;85.304;2022-11-22T07:58:56;21.60;62.50
50907;DHT22;36882;27.680;85.304;2022-11-22T08:01:26;21.70;61.20
50907;DHT22;36882;27.680;85.304;2022-11-22T08:03:57;21.50;61.10
50907;DHT22;36882;27.680;85.304;2022-11-22T08:06:27;21.60;61.60
50907;DHT22;36882;27.680;85.304;2022-11-22T08:08:58;21.60;62.40
50907;DHT22;36882;27.680;85.304;2022-11-22T08:11:29;21.50;61.90
50907;DHT22;36882;27.680;85.304;2022-11-22T08:14:00;21.60;63.10
50907;DHT22;36882;27.680;85.304;2022-11-22T08:16:30;21.60;63.20
50907;DHT22;36882;27.680;85.304;2022-11-22T08:19:01;21.60;62.70
50907;DHT22;36882;27.680;85.304;2022-11-22T08:21:32;21.70;64.20
50907;DHT22;36882;27.680;85.304;2022-11-22T08:24:04;21.60;64.00
50907;DHT22;36882;27.680;85.304;2022-11-22T08:26:35;21.60;64.90
50907;DHT22;36882;27.680;85.304;2022-11-22T08:29:12;21.60;66.20
50907;DHT22;36882;27.680;85.304;2022-11-22T08:31:42;21.60;66.00
50907;DHT22;36882;27.680;85.304;2022-11-22T08:34:13;21.60;66.70
50907;DHT22;36882;27.680;85.304;2022-11-22T08:36:46;21.60;67.50
50907;DHT22;36882;27.680;85.304;2022-11-22T08:39:18;21.60;67.60
50907;DHT22;36882;27.680;85.304;2022-11-22T08:41:50;21.50;67.40
50907;DHT22;36882;27.680;85.304;2022-11-22T08:44:20;21.60;67.10
50907;DHT22;36882;27.680;85.304;2022-11-22T08:46:50;21.50;67.90
50907;DHT22;36882;27.680;85.304;2022-11-22T08:49:20;21.50;68.30
50907;DHT22;36882;27.680;85.304;2022-11-22T08:51:50;21.50;68.30
50907;DHT22;36882;27.680;85.304;2022-11-22T08:54:23;21.60;68.50
50907;DHT22;36882;27.680;85.304;2022-11-22T08:56:52;21.60;68.50
50907;DHT22;36882;27.680;85.304;2022-11-22T08:59:22;21.60;68.20
50907;DHT22;36882;27.680;85.304;2022-11-22T09:01:52;21.60;68.40
50907;DHT22;36882;27.680;85.304;2022-11-22T09:04:22;21.70;68.50
50907;DHT22;36882;27.680;85.304;2022-11-22T09:06:52;21.60;67.90
50907;DHT22;36882;27.680;85.304;2022-11-22T09:09:43;21.50;67.70
50907;DHT22;36882;27.680;85.304;2022-11-22T09:12:13;21.40;68.00
50907;DHT22;36882;27.680;85.304;2022-11-22T09:14:44;21.40;68.50
50907;DHT22;36882;27.680;85.304;2022-11-22T09:17:14;21.40;69.20
50907;DHT22;36882;27.680;85.304;2022-11-22T09:19:45;21.30;70.50
50907;DHT22;36882;27.680;85.304;2022-11-22T09:22:15;21.20;71.00
50907;DHT22;36882;27.680;85.304;2022-11-22T09:24:49;21.10;72.30
50907;DHT22;36882;27.680;85.304;2022-11-22T09:27:19;21.10;72.90
50907;DHT22;36882;27.680;85.304;2022-11-22T09:29:49;21.10;73.30
50907;DHT22;36882;27.680;85.304;2022-11-22T09:32:19;21.00;73.70
50907;DHT22;36882;27.680;85.304;2022-11-22T09:34:49;21.00;74.90
50907;DHT22;36882;27.680;85.304;2022-11-22T09:37:19;20.90;74.60
50907;DHT22;36882;27.680;85.304;2022-11-22T09:39:49;21.00;75.60
50907;DHT22;36882;27.680;85.304;2022-11-22T09:42:56;20.90;74.80
50907;DHT22;36882;27.680;85.304;2022-11-22T09:48:39;20.80;75.70
50907;DHT22;36882;27.680;85.304;2022-11-22T09:51:22;20.80;76.10
50907;DHT22;36882;27.680;85.304;2022-11-22T09:54:11;20.80;76.10
50907;DHT22;36882;27.680;85.304;2022-11-22T09:56:43;20.80;76.10
50907;DHT22;36882;27.680;85.304;2022-11-22T09:59:31;20.80;76.10
50907;DHT22;36882;27.680;85.304;2022-11-22T10:04:56;20.70;76.10
50907;DHT22;36882;27.680;85.304;2022-11-22T10:07:37;20.80;76.40
50907;DHT22;36882;27.680;85.304;2022-11-22T10:10:14;20.60;76.50
50907;DHT22;36882;27.680;85.304;2022-11-22T10:16:27;20.60;77.90
50907;DHT22;36882;27.680;85.304;2022-11-22T10:19:09;20.60;76.80
50907;DHT22;36882;27.680;85.304;2022-11-22T10:21:40;20.60;76.40
50907;DHT22;36882;27.680;85.304;2022-11-22T10:24:16;20.60;76.80
50907;DHT22;36882;27.680;85.304;2022-11-22T10:26:48;20.40;76.70
50907;DHT22;36882;27.680;85.304;2022-11-22T10:29:35;20.40;76.80
50907;DHT22;36882;27.680;85.304;2022-11-22T10:32:34;20.30;77.80
50907;DHT22;36882;27.680;85.304;2022-11-22T10:35:29;20.20;76.50
50907;DHT22;36882;27.680;85.304;2022-11-22T10:41:24;20.20;77.50
50907;DHT22;36882;27.680;85.304;2022-11-22T10:44:25;20.10;77.70
50907;DHT22;36882;27.680;85.304;2022-11-22T10:47:14;20.00;78.50
50907;DHT22;36882;27.680;85.304;2022-11-22T10:53:11;19.80;78.00
50907;DHT22;36882;27.680;85.304;2022-11-22T10:56:03;19.80;78.60
50907;DHT22;36882;27.680;85.304;2022-11-22T11:04:46;19.50;79.40
50907;DHT22;36882;27.680;85.304;2022-11-22T11:07:21;19.40;80.00
50907;DHT22;36882;27.680;85.304;2022-11-22T11:09:56;19.30;79.90
50907;DHT22;36882;27.680;85.304;2022-11-22T11:12:59;19.30;80.80
50907;DHT22;36882;27.680;85.304;2022-11-22T11:15:41;19.20;80.40
50907;DHT22;36882;27.680;85.304;2022-11-22T11:18:38;19.10;80.80
50907;DHT22;36882;27.680;85.304;2022-11-22T11:21:12;19.10;81.00
50907;DHT22;36882;27.680;85.304;2022-11-22T11:23:43;19.00;81.40
50907;DHT22;36882;27.680;85.304;2022-11-22T11:26:23;18.90;82.00
50907;DHT22;36882;27.680;85.304;2022-11-22T11:32:08;18.80;82.50
50907;DHT22;36882;27.680;85.304;2022-11-22T11:34:41;18.80;83.20
50907;DHT22;36882;27.680;85.304;2022-11-22T11:37:22;18.70;83.40
50907;DHT22;36882;27.680;85.304;2022-11-22T11:39:53;18.70;84.10
50907;DHT22;36882;27.680;85.304;2022-11-22T11:42:27;18.60;83.80
50907;DHT22;36882;27.680;85.304;2022-11-22T11:45:25;18.60;84.70
50907;DHT22;36882;27.680;85.304;2022-11-22T11:47:57;18.50;85.00
50907;DHT22;36882;27.680;85.304;2022-11-22T11:50:28;18.40;84.90
50907;DHT22;36882;27.680;85.304;2022-11-22T11:53:05;18.50;85.20
50907;DHT22;36882;27.680;85.304;2022-11-22T11:55:44;18.40;85.30
50907;DHT22;36882;27.680;85.304;2022-11-22T11:58:19;18.30;85.30
50907;DHT22;36882;27.680;85.304;2022-11-22T12:00:52;18.30;85.10
50907;DHT22;36882;27.680;85.304;2022-11-22T12:03:25;18.20;85.20
50907;DHT22;36882;27.680;85.304;2022-11-22T12:06:25;18.10;85.10
50907;DHT22;36882;27.680;85.304;2022-11-22T12:08:43;18.10;85.00
50907;DHT22;36882;27.680;85.304;2022-11-22T12:11:19;18.10;85.20
50907;DHT22;36882;27.680;85.304;2022-11-22T12:13:56;18.00;85.10
50907;DHT22;36882;27.680;85.304;2022-11-22T12:16:49;18.00;85.20
50907;DHT22;36882;27.680;85.304;2022-11-22T12:22:22;17.90;85.80
50907;DHT22;36882;27.680;85.304;2022-11-22T12:25:32;17.90;86.10
50907;DHT22;36882;27.680;85.304;2022-11-22T12:28:19;17.80;86.70
50907;DHT22;36882;27.680;85.304;2022-11-22T12:31:08;17.80;86.80
50907;DHT22;36882;27.680;85.304;2022-11-22T12:33:52;17.70;87.20
50907;DHT22;36882;27.680;85.304;2022-11-22T12:36:31;17.70;86.90
50907;DHT22;36882;27.680;85.304;2022-11-22T12:39:05;17.70;87.20
50907;DHT22;36882;27.680;85.304;2022-11-22T12:41:41;17.70;87.20
50907;DHT22;36882;27.680;85.304;2022-11-22T12:44:17;17.60;87.40
50907;DHT22;36882;27.680;85.304;2022-11-22T12:46:53;17.50;87.70
50907;DHT22;36882;27.680;85.304;2022-11-22T12:49:47;17.50;87.70
50907;DHT22;36882;27.680;85.304;2022-11-22T12:52:37;17.60;87.90
50907;DHT22;36882;27.680;85.304;2022-11-22T12:55:29;17.50;87.40
50907;DHT22;36882;27.680;85.304;2022-11-22T12:58:16;17.50;87.90
50907;DHT22;36882;27.680;85.304;2022-11-22T13:01:12;17.50;88.80
50907;DHT22;36882;27.680;85.304;2022-11-22T13:03:56;17.50;89.90
50907;DHT22;36882;27.680;85.304;2022-11-22T13:06:41;17.50;90.70
50907;DHT22;36882;27.680;85.304;2022-11-22T13:09:19;17.50;90.90
50907;DHT22;36882;27.680;85.304;2022-11-22T13:12:02;17.40;91.00
50907;DHT22;36882;27.680;85.304;2022-11-22T13:14:40;17.40;91.00
50907;DHT22;36882;27.680;85.304;2022-11-22T13:17:13;17.40;91.00
50907;DHT22;36882;27.680;85.304;2022-11-22T13:19:51;17.40;91.00
50907;DHT22;36882;27.680;85.304;2022-11-22T13:22:55;17.30;91.00
50907;DHT22;36882;27.680;85.304;2022-11-22T13:26:05;17.30;91.10
50907;DHT22;36882;27.680;85.304;2022-11-22T13:28:41;17.20;91.30
50907;DHT22;36882;27.680;85.304;2022-11-22T13:31:16;17.20;91.70
50907;DHT22;36882;27.680;85.304;2022-11-22T13:34:02;17.20;91.70
50907;DHT22;36882;27.680;85.304;2022-11-22T13:36:36;17.10;91.90
50907;DHT22;36882;27.680;85.304;2022-11-22T13:39:15;17.10;92.00
50907;DHT22;36882;27.680;85.304;2022-11-22T13:42:03;17.10;92.30
50907;DHT22;36882;27.680;85.304;2022-11-22T13:44:36;17.10;92.40
50907;DHT22;36882;27.680;85.304;2022-11-22T13:47:37;17.00;92.60
50907;DHT22;36882;27.680;85.304;2022-11-22T13:53:26;17.00;92.80
50907;DHT22;36882;27.680;85.304;2022-11-22T13:58:53;17.00;93.40
50907;DHT22;36882;27.680;85.304;2022-11-22T14:01:54;17.00;93.20
50907;DHT22;36882;27.680;85.304;2022-11-22T14:04:31;17.00;93.50
50907;DHT22;36882;27.680;85.304;2022-11-22T14:07:31;16.90;93.60
50907;DHT22;36882;27.680;85.304;2022-11-22T14:10:03;16.80;93.60
50907;DHT22;36882;27.680;85.304;2022-11-22T14:12:59;16.80;93.70
50907;DHT22;36882;27.680;85.304;2022-11-22T14:22:09;16.70;93.70
50907;DHT22;36882;27.680;85.304;2022-11-22T14:24:54;16.70;93.60
50907;DHT22;36882;27.680;85.304;2022-11-22T14:27:49;16.70;93.60
50907;DHT22;36882;27.680;85.304;2022-11-22T14:30:35;16.70;93.50
50907;DHT22;36882;27.680;85.304;2022-11-22T14:33:23;16.70;93.50
50907;DHT22;36882;27.680;85.304;2022-11-22T14:36:13;16.60;93.70
50907;DHT22;36882;27.680;85.304;2022-11-22T14:38:44;16.50;93.80
50907;DHT22;36882;27.680;85.304;2022-11-22T14:41:40;16.50;94.00
50907;DHT22;36882;27.680;85.304;2022-11-22T14:44:17;16.40;93.90
50907;DHT22;36882;27.680;85.304;2022-11-22T14:46:55;16.40;94.10
50907;DHT22;36882;27.680;85.304;2022-11-22T14:49:41;16.40;94.10
50907;DHT22;36882;27.680;85.304;2022-11-22T14:52:29;16.40;94.10
50907;DHT22;36882;27.680;85.304;2022-11-22T14:55:03;16.40;94.30
50907;DHT22;36882;27.680;85.304;2022-11-22T14:57:37;16.30;94.00
50907;DHT22;36882;27.680;85.304;2022-11-22T15:00:24;16.30;94.00
50907;DHT22;36882;27.680;85.304;2022-11-22T15:06:11;16.20;94.20
50907;DHT22;36882;27.680;85.304;2022-11-22T15:15:41;16.00;94.30
50907;DHT22;36882;27.680;85.304;2022-11-22T15:18:38;16.10;94.40
50907;DHT22;36882;27.680;85.304;2022-11-22T15:21:32;16.00;94.40
50907;DHT22;36882;27.680;85.304;2022-11-22T15:24:25;16.00;94.40
50907;DHT22;36882;27.680;85.304;2022-11-22T15:27:29;16.00;94.50
50907;DHT22;36882;27.680;85.304;2022-11-22T15:30:23;15.90;94.60
50907;DHT22;36882;27.680;85.304;2022-11-22T15:33:31;15.90;94.80
50907;DHT22;36882;27.680;85.304;2022-11-22T15:39:50;15.80;94.60
50907;DHT22;36882;27.680;85.304;2022-11-22T15:42:53;15.80;94.70
50907;DHT22;36882;27.680;85.304;2022-11-22T15:45:44;15.80;94.60
50907;DHT22;36882;27.680;85.304;2022-11-22T15:48:40;15.70;94.70
50907;DHT22;36882;27.680;85.304;2022-11-22T15:51:56;15.70;94.60
50907;DHT22;36882;27.680;85.304;2022-11-22T15:54:53;15.60;94.60
50907;DHT22;36882;27.680;85.304;2022-11-22T15:57:44;15.60;94.60
50907;DHT22;36882;27.680;85.304;2022-11-22T16:00:26;15.60;94.60
50907;DHT22;36882;27.680;85.304;2022-11-22T16:03:00;15.50;94.60
50907;DHT22;36882;27.680;85.304;2022-11-22T16:05:37;15.50;94.60
50907;DHT22;36882;27.680;85.304;2022-11-22T16:08:27;15.50;94.60
50907;DHT22;36882;27.680;85.304;2022-11-22T16:10:59;15.40;94.60
50907;DHT22;36882;27.680;85.304;2022-11-22T16:13:34;15.40;94.70
50907;DHT22;36882;27.680;85.304;2022-11-22T16:16:27;15.40;94.60
50907;DHT22;36882;27.680;85.304;2022-11-22T16:19:20;15.40;94.60
50907;DHT22;36882;27.680;85.304;2022-11-22T16:21:59;15.30;94.50
50907;DHT22;36882;27.680;85.304;2022-11-22T16:24:31;15.30;94.60
50907;DHT22;36882;27.680;85.304;2022-11-22T16:27:04;15.20;94.60
50907;DHT22;36882;27.680;85.304;2022-11-22T16:29:40;15.30;94.90
50907;DHT22;36882;27.680;85.304;2022-11-22T16:32:18;15.20;94.70
50907;DHT22;36882;27.680;85.304;2022-11-22T16:34:51;15.20;94.70
50907;DHT22;36882;27.680;85.304;2022-11-22T16:37:42;15.20;94.70
50907;DHT22;36882;27.680;85.304;2022-11-22T16:40:15;15.20;94.80
50907;DHT22;36882;27.680;85.304;2022-11-22T16:42:45;15.10;94.70
50907;DHT22;36882;27.680;85.304;2022-11-22T16:45:17;15.10;94.70
50907;DHT22;36882;27.680;85.304;2022-11-22T16:47:48;15.10;94.80
50907;DHT22;36882;27.680;85.304;2022-11-22T16:50:39;15.00;94.80
50907;DHT22;36882;27.680;85.304;2022-11-22T16:53:14;14.90;94.90
50907;DHT22;36882;27.680;85.304;2022-11-22T16:55:46;14.90;95.00
50907;DHT22;36882;27.680;85.304;2022-11-22T16:58:19;14.90;95.00
50907;DHT22;36882;27.680;85.304;2022-11-22T17:00:51;14.90;95.00
50907;DHT22;36882;27.680;85.304;2022-11-22T17:03:25;14.90;94.90
50907;DHT22;36882;27.680;85.304;2022-11-22T17:05:59;14.90;94.80
50907;DHT22;36882;27.680;85.304;2022-11-22T17:08:29;14.90;94.80
50907;DHT22;36882;27.680;85.304;2022-11-22T17:10:59;14.90;94.80
50907;DHT22;36882;27.680;85.304;2022-11-22T17:13:29;14.90;94.80
50907;DHT22;36882;27.680;85.304;2022-11-22T17:15:59;14.80;94.90
50907;DHT22;36882;27.680;85.304;2022-11-22T17:18:29;14.80;94.90
50907;DHT22;36882;27.680;85.304;2022-11-22T17:20:59;14.70;94.90
50907;DHT22;36882;27.680;85.304;2022-11-22T17:23:35;14.70;94.90
50907;DHT22;36882;27.680;85.304;2022-11-22T17:26:09;14.70;94.80
50907;DHT22;36882;27.680;85.304;2022-11-22T17:28:39;14.60;94.70
50907;DHT22;36882;27.680;85.304;2022-11-22T17:31:13;14.60;94.70
50907;DHT22;36882;27.680;85.304;2022-11-22T17:33:51;14.60;94.60
50907;DHT22;36882;27.680;85.304;2022-11-22T17:36:28;14.60;94.40
50907;DHT22;36882;27.680;85.304;2022-11-22T17:38:59;14.60;94.30
50907;DHT22;36882;27.680;85.304;2022-11-22T17:41:30;14.60;94.30
50907;DHT22;36882;27.680;85.304;2022-11-22T17:43:59;14.60;94.30